Terminal Aerodrome Forecast
Issued by NWS

Home | Current Version | Previous Version | Text Only | Print | Product List | Glossary On
Versions: 1 2 3 4 5 6 7 8 9 10 11 12 13 14 15 16 17 18 19 20 21 22 23 24 25 26 27 28 29 30 31 32 33 34 35
000
FTUS41 KBOX 011202 AAA
TAFBAF
TAF AMD
KBAF 011202Z 0112/0212 00000KT P6SM BKN003
     FM011400 VRB03KT P6SM SCT003 BKN025
     FM011600 25004KT P6SM BKN040
     FM012000 21004KT P6SM VCTS BKN050CB
     FM012200 21004KT P6SM BKN045
     FM020400 00000KT 6SM BR BKN025
     FM020600 00000KT 3SM BR BKN003=

USA.gov is the U.S. government's official web portal to all federal, state and local government web resources and services.